sensor_id;sensor_type;location;lat;lon;timestamp;pressure;altitude;pressure_sealevel;temperature;humidity
43707;BME280;61348;53.392;-6.248;2023-04-25T00:00:16;101098.00;;;6.22;77.64
43707;BME280;61348;53.392;-6.248;2023-04-25T00:02:43;101095.06;;;6.18;77.64
43707;BME280;61348;53.392;-6.248;2023-04-25T00:05:10;101091.31;;;6.14;77.66
43707;BME280;61348;53.392;-6.248;2023-04-25T00:07:37;101087.53;;;6.10;77.66
43707;BME280;61348;53.392;-6.248;2023-04-25T00:10:05;101097.41;;;6.11;78.00
43707;BME280;61348;53.392;-6.248;2023-04-25T00:12:32;101104.34;;;6.08;77.98
43707;BME280;61348;53.392;-6.248;2023-04-25T00:14:59;101101.88;;;6.07;78.24
43707;BME280;61348;53.392;-6.248;2023-04-25T00:17:26;101104.63;;;6.07;78.13
43707;BME280;61348;53.392;-6.248;2023-04-25T00:19:53;101106.88;;;6.05;78.31
43707;BME280;61348;53.392;-6.248;2023-04-25T00:22:20;101108.31;;;6.02;78.47
43707;BME280;61348;53.392;-6.248;2023-04-25T00:24:47;101108.91;;;5.99;78.63
43707;BME280;61348;53.392;-6.248;2023-04-25T00:27:14;101107.09;;;5.95;78.75
43707;BME280;61348;53.392;-6.248;2023-04-25T00:29:40;101104.34;;;5.95;78.92
43707;BME280;61348;53.392;-6.248;2023-04-25T00:32:07;101099.34;;;5.97;79.21
43707;BME280;61348;53.392;-6.248;2023-04-25T00:34:34;101095.47;;;5.98;79.09
43707;BME280;61348;53.392;-6.248;2023-04-25T00:37:00;101097.19;;;5.94;78.94
43707;BME280;61348;53.392;-6.248;2023-04-25T00:39:30;101097.31;;;5.89;79.09
43707;BME280;61348;53.392;-6.248;2023-04-25T00:41:57;101097.38;;;5.84;79.14
43707;BME280;61348;53.392;-6.248;2023-04-25T00:44:24;101094.94;;;5.82;79.28
43707;BME280;61348;53.392;-6.248;2023-04-25T00:46:52;101097.69;;;5.82;79.43
43707;BME280;61348;53.392;-6.248;2023-04-25T00:49:19;101104.28;;;5.81;79.44
43707;BME280;61348;53.392;-6.248;2023-04-25T00:51:45;101096.88;;;5.82;79.58
43707;BME280;61348;53.392;-6.248;2023-04-25T00:54:13;101090.34;;;5.78;79.83
43707;BME280;61348;53.392;-6.248;2023-04-25T00:56:41;101095.84;;;5.78;79.92
43707;BME280;61348;53.392;-6.248;2023-04-25T00:59:09;101095.84;;;5.78;79.46
43707;BME280;61348;53.392;-6.248;2023-04-25T01:01:36;101091.59;;;5.72;79.65
43707;BME280;61348;53.392;-6.248;2023-04-25T01:04:04;101094.63;;;5.70;80.01
43707;BME280;61348;53.392;-6.248;2023-04-25T01:06:31;101094.94;;;5.69;80.10
43707;BME280;61348;53.392;-6.248;2023-04-25T01:08:59;101099.91;;;5.67;80.14
43707;BME280;61348;53.392;-6.248;2023-04-25T01:11:26;101103.78;;;5.66;80.25
43707;BME280;61348;53.392;-6.248;2023-04-25T01:13:52;101107.63;;;5.65;80.33
43707;BME280;61348;53.392;-6.248;2023-04-25T01:16:19;101104.88;;;5.65;80.17
43707;BME280;61348;53.392;-6.248;2023-04-25T01:18:47;101110.38;;;5.65;80.28
43707;BME280;61348;53.392;-6.248;2023-04-25T01:21:14;101107.63;;;5.65;80.49
43707;BME280;61348;53.392;-6.248;2023-04-25T01:23:42;101103.38;;;5.59;80.31
43707;BME280;61348;53.392;-6.248;2023-04-25T01:26:10;101094.09;;;5.54;80.40
43707;BME280;61348;53.392;-6.248;2023-04-25T01:28:39;101098.25;;;5.52;80.52
43707;BME280;61348;53.392;-6.248;2023-04-25T01:31:08;101103.34;;;5.45;80.54
43707;BME280;61348;53.392;-6.248;2023-04-25T01:33:35;101095.41;;;5.43;80.66
43707;BME280;61348;53.392;-6.248;2023-04-25T01:36:02;101096.53;;;5.42;80.56
43707;BME280;61348;53.392;-6.248;2023-04-25T01:38:29;101099.06;;;5.39;80.67
43707;BME280;61348;53.392;-6.248;2023-04-25T01:40:56;101095.00;;;5.36;81.03
43707;BME280;61348;53.392;-6.248;2023-04-25T01:43:23;101091.72;;;5.34;81.07
43707;BME280;61348;53.392;-6.248;2023-04-25T01:45:50;101090.59;;;5.35;80.69
43707;BME280;61348;53.392;-6.248;2023-04-25T01:48:17;101085.72;;;5.32;80.61
43707;BME280;61348;53.392;-6.248;2023-04-25T01:50:45;101079.22;;;5.28;80.90
43707;BME280;61348;53.392;-6.248;2023-04-25T01:53:13;101074.63;;;5.24;80.98
43707;BME280;61348;53.392;-6.248;2023-04-25T01:55:40;101081.72;;;5.25;80.72
43707;BME280;61348;53.392;-6.248;2023-04-25T01:58:09;101083.88;;;5.28;80.94
43707;BME280;61348;53.392;-6.248;2023-04-25T02:00:38;101094.03;;;5.27;80.83
43707;BME280;61348;53.392;-6.248;2023-04-25T02:03:07;101085.00;;;5.27;80.66
43707;BME280;61348;53.392;-6.248;2023-04-25T02:05:38;101084.19;;;5.26;80.80
43707;BME280;61348;53.392;-6.248;2023-04-25T02:08:07;101083.16;;;5.22;80.72
43707;BME280;61348;53.392;-6.248;2023-04-25T02:10:34;101082.97;;;5.19;80.64
43707;BME280;61348;53.392;-6.248;2023-04-25T02:13:01;101091.47;;;5.17;81.22
43707;BME280;61348;53.392;-6.248;2023-04-25T02:15:28;101088.22;;;5.15;81.07
43707;BME280;61348;53.392;-6.248;2023-04-25T02:17:55;101093.72;;;5.15;80.87
43707;BME280;61348;53.392;-6.248;2023-04-25T02:20:23;101095.94;;;5.13;81.12
43707;BME280;61348;53.392;-6.248;2023-04-25T02:22:51;101100.41;;;5.09;81.30
43707;BME280;61348;53.392;-6.248;2023-04-25T02:25:19;101092.16;;;5.09;81.13
43707;BME280;61348;53.392;-6.248;2023-04-25T02:27:47;101086.16;;;5.07;81.41
43707;BME280;61348;53.392;-6.248;2023-04-25T02:30:14;101086.16;;;5.07;81.34
43707;BME280;61348;53.392;-6.248;2023-04-25T02:32:40;101090.00;;;5.06;81.46
43707;BME280;61348;53.392;-6.248;2023-04-25T02:35:08;101101.59;;;5.03;81.21
43707;BME280;61348;53.392;-6.248;2023-04-25T02:37:37;101084.94;;;5.00;81.18
43707;BME280;61348;53.392;-6.248;2023-04-25T02:40:05;101094.56;;;4.97;81.71
43707;BME280;61348;53.392;-6.248;2023-04-25T02:42:32;101090.19;;;4.96;81.80
43707;BME280;61348;53.392;-6.248;2023-04-25T02:45:00;101089.09;;;4.97;81.69
43707;BME280;61348;53.392;-6.248;2023-04-25T02:47:27;101098.94;;;4.98;81.96
43707;BME280;61348;53.392;-6.248;2023-04-25T02:49:54;101098.34;;;5.01;81.97
43707;BME280;61348;53.392;-6.248;2023-04-25T02:52:21;101101.00;;;5.06;82.07
43707;BME280;61348;53.392;-6.248;2023-04-25T02:54:48;101092.97;;;5.10;82.16
43707;BME280;61348;53.392;-6.248;2023-04-25T02:57:14;101091.88;;;5.11;81.74
43707;BME280;61348;53.392;-6.248;2023-04-25T02:59:41;101091.06;;;5.10;82.02
43707;BME280;61348;53.392;-6.248;2023-04-25T03:02:08;101093.50;;;5.12;81.98
43707;BME280;61348;53.392;-6.248;2023-04-25T03:04:35;101102.03;;;5.10;81.75
43707;BME280;61348;53.392;-6.248;2023-04-25T03:07:02;101096.56;;;5.10;81.54
43707;BME280;61348;53.392;-6.248;2023-04-25T03:09:28;101099.78;;;5.12;81.70
43707;BME280;61348;53.392;-6.248;2023-04-25T03:11:55;101087.81;;;5.08;81.97
43707;BME280;61348;53.392;-6.248;2023-04-25T03:14:22;101093.28;;;5.08;82.05
43707;BME280;61348;53.392;-6.248;2023-04-25T03:16:48;101085.56;;;5.10;82.29
43707;BME280;61348;53.392;-6.248;2023-04-25T03:19:15;101081.69;;;5.11;82.08
43707;BME280;61348;53.392;-6.248;2023-04-25T03:21:45;101079.25;;;5.10;82.15
43707;BME280;61348;53.392;-6.248;2023-04-25T03:24:12;101080.16;;;5.05;82.24
43707;BME280;61348;53.392;-6.248;2023-04-25T03:26:38;101080.25;;;5.00;82.37
43707;BME280;61348;53.392;-6.248;2023-04-25T03:29:05;101088.03;;;4.93;82.34
43707;BME280;61348;53.392;-6.248;2023-04-25T03:31:32;101086.19;;;4.88;82.24
43707;BME280;61348;53.392;-6.248;2023-04-25T03:33:58;101097.53;;;4.82;82.16
43707;BME280;61348;53.392;-6.248;2023-04-25T03:36:27;101083.41;;;4.75;82.53
43707;BME280;61348;53.392;-6.248;2023-04-25T03:38:54;101091.72;;;4.70;82.58
43707;BME280;61348;53.392;-6.248;2023-04-25T03:41:21;101094.53;;;4.65;82.52
43707;BME280;61348;53.392;-6.248;2023-04-25T03:43:47;101090.22;;;4.59;82.47
43707;BME280;61348;53.392;-6.248;2023-04-25T03:46:14;101088.91;;;4.56;82.68
43707;BME280;61348;53.392;-6.248;2023-04-25T03:48:41;101092.44;;;4.57;82.82
43707;BME280;61348;53.392;-6.248;2023-04-25T03:51:08;101090.81;;;4.56;82.55
43707;BME280;61348;53.392;-6.248;2023-04-25T03:53:35;101091.94;;;4.55;82.39
43707;BME280;61348;53.392;-6.248;2023-04-25T03:56:02;101084.59;;;4.50;82.41
43707;BME280;61348;53.392;-6.248;2023-04-25T03:58:29;101087.13;;;4.47;82.40
43707;BME280;61348;53.392;-6.248;2023-04-25T04:00:55;101083.88;;;4.45;82.60
43707;BME280;61348;53.392;-6.248;2023-04-25T04:03:22;101088.81;;;4.43;82.49
43707;BME280;61348;53.392;-6.248;2023-04-25T04:05:49;101085.88;;;4.39;82.48
43707;BME280;61348;53.392;-6.248;2023-04-25T04:08:17;101081.78;;;4.37;82.71
43707;BME280;61348;53.392;-6.248;2023-04-25T04:10:43;101085.13;;;4.34;82.50
43707;BME280;61348;53.392;-6.248;2023-04-25T04:13:10;101090.06;;;4.31;83.01
43707;BME280;61348;53.392;-6.248;2023-04-25T04:15:37;101094.22;;;4.29;82.91
43707;BME280;61348;53.392;-6.248;2023-04-25T04:18:03;101090.69;;;4.28;82.58
43707;BME280;61348;53.392;-6.248;2023-04-25T04:20:30;101088.22;;;4.27;82.68
43707;BME280;61348;53.392;-6.248;2023-04-25T04:22:57;101087.38;;;4.26;82.94
43707;BME280;61348;53.392;-6.248;2023-04-25T04:25:23;101082.53;;;4.23;83.07
43707;BME280;61348;53.392;-6.248;2023-04-25T04:27:50;101092.88;;;4.26;83.28
43707;BME280;61348;53.392;-6.248;2023-04-25T04:30:23;101101.84;;;4.32;82.95
43707;BME280;61348;53.392;-6.248;2023-04-25T04:32:56;101088.97;;;4.32;82.82
43707;BME280;61348;53.392;-6.248;2023-04-25T04:35:23;101101.63;;;4.28;82.37
43707;BME280;61348;53.392;-6.248;2023-04-25T04:37:50;101092.88;;;4.26;82.48
43707;BME280;61348;53.392;-6.248;2023-04-25T04:40:17;101101.75;;;4.18;82.49
43707;BME280;61348;53.392;-6.248;2023-04-25T04:42:44;101095.00;;;4.11;82.99
43707;BME280;61348;53.392;-6.248;2023-04-25T04:45:14;101097.00;;;4.05;82.80
43707;BME280;61348;53.392;-6.248;2023-04-25T04:47:42;101091.50;;;4.05;83.03
43707;BME280;61348;53.392;-6.248;2023-04-25T04:50:10;101095.59;;;4.08;82.97
43707;BME280;61348;53.392;-6.248;2023-04-25T04:52:37;101104.34;;;4.10;82.64
43707;BME280;61348;53.392;-6.248;2023-04-25T04:55:05;101109.53;;;4.11;82.71
43707;BME280;61348;53.392;-6.248;2023-04-25T04:57:32;101112.25;;;4.11;82.85
43707;BME280;61348;53.392;-6.248;2023-04-25T04:59:59;101106.28;;;4.09;82.65
43707;BME280;61348;53.392;-6.248;2023-04-25T05:02:26;101112.03;;;4.08;82.76
43707;BME280;61348;53.392;-6.248;2023-04-25T05:04:53;101115.66;;;4.03;82.69
43707;BME280;61348;53.392;-6.248;2023-04-25T05:07:20;101122.66;;;3.91;82.80
43707;BME280;61348;53.392;-6.248;2023-04-25T05:09:47;101110.69;;;3.82;82.91
43707;BME280;61348;53.392;-6.248;2023-04-25T05:12:13;101113.22;;;3.78;83.37
43707;BME280;61348;53.392;-6.248;2023-04-25T05:14:40;101111.63;;;3.72;83.65
43707;BME280;61348;53.392;-6.248;2023-04-25T05:17:07;101109.72;;;3.73;83.71
43707;BME280;61348;53.392;-6.248;2023-04-25T05:19:35;101121.44;;;3.78;83.88
43707;BME280;61348;53.392;-6.248;2023-04-25T05:22:02;101124.63;;;3.85;83.70
43707;BME280;61348;53.392;-6.248;2023-04-25T05:24:29;101129.53;;;3.88;83.54
43707;BME280;61348;53.392;-6.248;2023-04-25T05:26:57;101129.47;;;3.93;83.12
43707;BME280;61348;53.392;-6.248;2023-04-25T05:29:23;101124.00;;;3.93;82.95
43707;BME280;61348;53.392;-6.248;2023-04-25T05:31:50;101130.00;;;3.95;83.31
43707;BME280;61348;53.392;-6.248;2023-04-25T05:34:17;101135.47;;;3.95;82.83
43707;BME280;61348;53.392;-6.248;2023-04-25T05:36:44;101130.50;;;3.97;83.31
43707;BME280;61348;53.392;-6.248;2023-04-25T05:39:10;101127.75;;;3.97;82.88
43707;BME280;61348;53.392;-6.248;2023-04-25T05:41:37;101128.94;;;3.91;83.12
43707;BME280;61348;53.392;-6.248;2023-04-25T05:44:04;101135.88;;;3.84;83.52
43707;BME280;61348;53.392;-6.248;2023-04-25T05:46:31;101141.06;;;3.85;83.62
43707;BME280;61348;53.392;-6.248;2023-04-25T05:48:58;101131.97;;;3.90;83.78
43707;BME280;61348;53.392;-6.248;2023-04-25T05:51:25;101144.50;;;3.96;83.84
43707;BME280;61348;53.392;-6.248;2023-04-25T05:53:52;101136.81;;;3.98;83.34
43707;BME280;61348;53.392;-6.248;2023-04-25T05:56:19;101147.69;;;4.03;83.63
43707;BME280;61348;53.392;-6.248;2023-04-25T05:58:46;101150.38;;;4.08;83.31
43707;BME280;61348;53.392;-6.248;2023-04-25T06:01:13;101142.41;;;4.11;83.46
43707;BME280;61348;53.392;-6.248;2023-04-25T06:03:40;101141.56;;;4.11;83.38
43707;BME280;61348;53.392;-6.248;2023-04-25T06:06:09;101139.38;;;4.13;83.46
43707;BME280;61348;53.392;-6.248;2023-04-25T06:08:36;101142.91;;;4.13;83.58
43707;BME280;61348;53.392;-6.248;2023-04-25T06:11:04;101156.34;;;4.15;83.44
43707;BME280;61348;53.392;-6.248;2023-04-25T06:13:31;101144.81;;;4.18;83.65
43707;BME280;61348;53.392;-6.248;2023-04-25T06:15:58;101149.66;;;4.21;83.77
43707;BME280;61348;53.392;-6.248;2023-04-25T06:18:24;101149.91;;;4.24;83.49
43707;BME280;61348;53.392;-6.248;2023-04-25T06:20:51;101155.03;;;4.31;83.49
43707;BME280;61348;53.392;-6.248;2023-04-25T06:23:18;101153.84;;;4.37;83.79
43707;BME280;61348;53.392;-6.248;2023-04-25T06:25:44;101150.00;;;4.38;83.80
43707;BME280;61348;53.392;-6.248;2023-04-25T06:28:11;101149.69;;;4.40;83.86
43707;BME280;61348;53.392;-6.248;2023-04-25T06:30:38;101147.78;;;4.40;83.64
43707;BME280;61348;53.392;-6.248;2023-04-25T06:33:04;101153.00;;;4.42;83.61
43707;BME280;61348;53.392;-6.248;2023-04-25T06:35:31;101159.22;;;4.47;83.76
43707;BME280;61348;53.392;-6.248;2023-04-25T06:37:58;101167.38;;;4.52;83.95
43707;BME280;61348;53.392;-6.248;2023-04-25T06:40:24;101170.06;;;4.57;84.04
43707;BME280;61348;53.392;-6.248;2023-04-25T06:42:51;101167.00;;;4.59;84.06
43707;BME280;61348;53.392;-6.248;2023-04-25T06:45:18;101164.78;;;4.61;84.16
43707;BME280;61348;53.392;-6.248;2023-04-25T06:47:45;101163.09;;;4.65;83.83
43707;BME280;61348;53.392;-6.248;2023-04-25T06:50:11;101163.00;;;4.70;84.30
43707;BME280;61348;53.392;-6.248;2023-04-25T06:52:38;101167.31;;;4.76;84.13
43707;BME280;61348;53.392;-6.248;2023-04-25T06:55:05;101160.63;;;4.82;83.91
43707;BME280;61348;53.392;-6.248;2023-04-25T06:57:32;101156.72;;;4.88;84.01
43707;BME280;61348;53.392;-6.248;2023-04-25T06:59:59;101158.56;;;4.92;83.96
43707;BME280;61348;53.392;-6.248;2023-04-25T07:02:27;101159.28;;;4.98;84.13
43707;BME280;61348;53.392;-6.248;2023-04-25T07:04:55;101157.28;;;5.04;83.81
43707;BME280;61348;53.392;-6.248;2023-04-25T07:07:26;101149.28;;;5.07;83.71
43707;BME280;61348;53.392;-6.248;2023-04-25T07:09:53;101156.84;;;5.15;83.75
43707;BME280;61348;53.392;-6.248;2023-04-25T07:12:19;101146.78;;;5.24;83.74
43707;BME280;61348;53.392;-6.248;2023-04-25T07:14:46;101155.97;;;5.33;83.74
43707;BME280;61348;53.392;-6.248;2023-04-25T07:17:13;101153.88;;;5.44;83.65
43707;BME280;61348;53.392;-6.248;2023-04-25T07:19:39;101150.34;;;5.57;83.37
43707;BME280;61348;53.392;-6.248;2023-04-25T07:22:06;101151.59;;;5.65;83.57
43707;BME280;61348;53.392;-6.248;2023-04-25T07:24:33;101161.28;;;5.76;83.43
43707;BME280;61348;53.392;-6.248;2023-04-25T07:27:00;101162.44;;;5.88;83.34
43707;BME280;61348;53.392;-6.248;2023-04-25T07:29:27;101154.81;;;5.99;83.12
43707;BME280;61348;53.392;-6.248;2023-04-25T07:31:54;101155.75;;;6.08;83.13
43707;BME280;61348;53.392;-6.248;2023-04-25T07:34:21;101158.69;;;6.11;82.88
43707;BME280;61348;53.392;-6.248;2023-04-25T07:36:47;101160.03;;;6.14;83.15
43707;BME280;61348;53.392;-6.248;2023-04-25T07:39:14;101152.78;;;6.18;82.98
43707;BME280;61348;53.392;-6.248;2023-04-25T07:41:41;101159.59;;;6.21;83.22
43707;BME280;61348;53.392;-6.248;2023-04-25T07:44:07;101148.22;;;6.27;83.26
43707;BME280;61348;53.392;-6.248;2023-04-25T07:46:34;101152.47;;;6.33;83.27
43707;BME280;61348;53.392;-6.248;2023-04-25T07:49:01;101158.06;;;6.42;83.48
43707;BME280;61348;53.392;-6.248;2023-04-25T07:51:28;101165.91;;;6.48;83.77
43707;BME280;61348;53.392;-6.248;2023-04-25T07:53:55;101162.63;;;6.60;83.89
43707;BME280;61348;53.392;-6.248;2023-04-25T07:56:21;101156.97;;;6.79;84.33
43707;BME280;61348;53.392;-6.248;2023-04-25T07:58:48;101163.53;;;6.91;84.47
43707;BME280;61348;53.392;-6.248;2023-04-25T08:01:15;101165.16;;;7.06;85.18
43707;BME280;61348;53.392;-6.248;2023-04-25T08:03:43;101162.34;;;7.19;85.40
43707;BME280;61348;53.392;-6.248;2023-04-25T08:06:10;101161.13;;;7.34;86.01
43707;BME280;61348;53.392;-6.248;2023-04-25T08:08:37;101160.94;;;7.53;86.41
43707;BME280;61348;53.392;-6.248;2023-04-25T08:11:05;101161.34;;;7.68;86.93
43707;BME280;61348;53.392;-6.248;2023-04-25T08:13:32;101166.97;;;7.85;87.63
43707;BME280;61348;53.392;-6.248;2023-04-25T08:15:58;101164.63;;;8.01;88.01
43707;BME280;61348;53.392;-6.248;2023-04-25T08:18:25;101162.88;;;8.14;88.59
43707;BME280;61348;53.392;-6.248;2023-04-25T08:20:52;101164.81;;;8.44;89.90
43707;BME280;61348;53.392;-6.248;2023-04-25T08:23:19;101171.38;;;8.91;91.79
43707;BME280;61348;53.392;-6.248;2023-04-25T08:25:46;101167.28;;;9.57;93.69
43707;BME280;61348;53.392;-6.248;2023-04-25T08:28:13;101173.88;;;10.36;94.27
43707;BME280;61348;53.392;-6.248;2023-04-25T08:30:41;101167.97;;;11.17;93.45
43707;BME280;61348;53.392;-6.248;2023-04-25T08:33:08;101178.66;;;12.05;91.46
43707;BME280;61348;53.392;-6.248;2023-04-25T08:35:34;101178.19;;;12.88;88.56
43707;BME280;61348;53.392;-6.248;2023-04-25T08:38:02;101184.47;;;13.64;84.82
43707;BME280;61348;53.392;-6.248;2023-04-25T08:40:28;101187.28;;;14.39;81.79
43707;BME280;61348;53.392;-6.248;2023-04-25T08:42:57;101188.66;;;14.64;78.14
43707;BME280;61348;53.392;-6.248;2023-04-25T08:45:27;101191.47;;;14.99;75.72
43707;BME280;61348;53.392;-6.248;2023-04-25T08:47:54;101187.47;;;15.50;72.92
43707;BME280;61348;53.392;-6.248;2023-04-25T08:50:23;101191.91;;;15.93;70.42
43707;BME280;61348;53.392;-6.248;2023-04-25T08:52:53;101189.50;;;15.72;66.73
43707;BME280;61348;53.392;-6.248;2023-04-25T08:55:21;101188.34;;;14.66;65.82
43707;BME280;61348;53.392;-6.248;2023-04-25T08:57:49;101188.72;;;13.74;66.84
43707;BME280;61348;53.392;-6.248;2023-04-25T09:00:18;101178.78;;;14.20;66.39
43707;BME280;61348;53.392;-6.248;2023-04-25T09:02:46;101182.81;;;13.91;64.92
43707;BME280;61348;53.392;-6.248;2023-04-25T09:05:14;101184.00;;;13.34;64.49
43707;BME280;61348;53.392;-6.248;2023-04-25T09:07:41;101187.38;;;12.76;64.72
43707;BME280;61348;53.392;-6.248;2023-04-25T09:10:08;101187.13;;;12.20;64.74
43707;BME280;61348;53.392;-6.248;2023-04-25T09:12:35;101182.63;;;11.71;65.22
43707;BME280;61348;53.392;-6.248;2023-04-25T09:15:07;101172.53;;;11.67;66.04
43707;BME280;61348;53.392;-6.248;2023-04-25T09:17:35;101179.38;;;12.14;64.61
43707;BME280;61348;53.392;-6.248;2023-04-25T09:20:11;101178.41;;;11.86;64.22
43707;BME280;61348;53.392;-6.248;2023-04-25T09:22:38;101179.84;;;11.38;64.55
43707;BME280;61348;53.392;-6.248;2023-04-25T09:25:10;101182.28;;;11.19;64.83
43707;BME280;61348;53.392;-6.248;2023-04-25T09:27:49;101181.53;;;11.10;64.91
43707;BME280;61348;53.392;-6.248;2023-04-25T09:30:17;101182.22;;;11.28;65.36
43707;BME280;61348;53.392;-6.248;2023-04-25T09:32:44;101178.09;;;12.11;63.44
43707;BME280;61348;53.392;-6.248;2023-04-25T09:35:23;101187.19;;;13.21;62.56
43707;BME280;61348;53.392;-6.248;2023-04-25T09:37:50;101179.78;;;14.12;61.30
43707;BME280;61348;53.392;-6.248;2023-04-25T09:40:17;101189.94;;;15.01;60.54
43707;BME280;61348;53.392;-6.248;2023-04-25T09:42:44;101188.38;;;15.96;59.03
43707;BME280;61348;53.392;-6.248;2023-04-25T09:45:12;101188.25;;;16.57;58.03
43707;BME280;61348;53.392;-6.248;2023-04-25T09:47:41;101195.06;;;17.12;56.78
43707;BME280;61348;53.392;-6.248;2023-04-25T09:50:14;101202.19;;;17.66;55.46
43707;BME280;61348;53.392;-6.248;2023-04-25T09:52:42;101200.59;;;17.09;53.82
43707;BME280;61348;53.392;-6.248;2023-04-25T09:55:09;101198.41;;;16.23;54.97
43707;BME280;61348;53.392;-6.248;2023-04-25T09:57:36;101200.50;;;15.65;54.95
43707;BME280;61348;53.392;-6.248;2023-04-25T10:00:06;101194.78;;;14.70;55.30
43707;BME280;61348;53.392;-6.248;2023-04-25T10:02:39;101185.72;;;14.26;57.30
43707;BME280;61348;53.392;-6.248;2023-04-25T10:05:10;101194.69;;;15.16;56.05
43707;BME280;61348;53.392;-6.248;2023-04-25T10:07:38;101194.97;;;15.31;54.92
43707;BME280;61348;53.392;-6.248;2023-04-25T10:10:05;101199.50;;;15.00;54.78
43707;BME280;61348;53.392;-6.248;2023-04-25T10:12:33;101204.06;;;15.08;54.90
43707;BME280;61348;53.392;-6.248;2023-04-25T10:15:00;101203.06;;;14.66;54.36
43707;BME280;61348;53.392;-6.248;2023-04-25T10:17:27;101203.25;;;13.83;55.35
43707;BME280;61348;53.392;-6.248;2023-04-25T10:19:55;101197.53;;;13.08;56.67
43707;BME280;61348;53.392;-6.248;2023-04-25T10:24:55;101193.28;;;11.81;57.91
43707;BME280;61348;53.392;-6.248;2023-04-25T10:27:23;101192.88;;;11.38;58.80
43707;BME280;61348;53.392;-6.248;2023-04-25T10:30:03;101199.78;;;11.11;59.52
43707;BME280;61348;53.392;-6.248;2023-04-25T10:32:32;101196.94;;;10.99;60.23
43707;BME280;61348;53.392;-6.248;2023-04-25T10:35:26;101188.72;;;11.11;59.93
43707;BME280;61348;53.392;-6.248;2023-04-25T10:38:08;101189.44;;;11.41;59.28
43707;BME280;61348;53.392;-6.248;2023-04-25T10:40:36;101200.03;;;11.59;59.16
43707;BME280;61348;53.392;-6.248;2023-04-25T10:43:48;101195.69;;;11.71;59.01
43707;BME280;61348;53.392;-6.248;2023-04-25T10:46:22;101196.06;;;11.81;59.42
43707;BME280;61348;53.392;-6.248;2023-04-25T10:48:50;101195.53;;;11.88;58.68
43707;BME280;61348;53.392;-6.248;2023-04-25T10:53:45;101203.88;;;11.67;58.95
43707;BME280;61348;53.392;-6.248;2023-04-25T10:56:22;101198.94;;;11.73;59.50
43707;BME280;61348;53.392;-6.248;2023-04-25T10:58:49;101203.47;;;11.89;59.58
43707;BME280;61348;53.392;-6.248;2023-04-25T11:01:20;101188.75;;;12.09;59.38
43707;BME280;61348;53.392;-6.248;2023-04-25T11:03:47;101196.97;;;12.30;59.32
43707;BME280;61348;53.392;-6.248;2023-04-25T11:09:12;101198.16;;;12.65;58.86
43707;BME280;61348;53.392;-6.248;2023-04-25T11:11:40;101193.63;;;12.73;58.66
43707;BME280;61348;53.392;-6.248;2023-04-25T11:14:07;101190.03;;;12.72;58.64
43707;BME280;61348;53.392;-6.248;2023-04-25T11:16:33;101192.34;;;12.58;58.66
43707;BME280;61348;53.392;-6.248;2023-04-25T11:19:00;101189.13;;;12.56;58.62
43707;BME280;61348;53.392;-6.248;2023-04-25T11:21:27;101193.16;;;12.59;58.32
43707;BME280;61348;53.392;-6.248;2023-04-25T11:23:56;101183.91;;;12.55;57.82
43707;BME280;61348;53.392;-6.248;2023-04-25T11:26:24;101178.25;;;12.51;57.69
43707;BME280;61348;53.392;-6.248;2023-04-25T11:28:51;101184.72;;;12.43;57.44
43707;BME280;61348;53.392;-6.248;2023-04-25T11:31:20;101182.63;;;12.40;57.35
43707;BME280;61348;53.392;-6.248;2023-04-25T11:33:48;101195.69;;;12.28;57.15
43707;BME280;61348;53.392;-6.248;2023-04-25T11:36:15;101186.44;;;12.23;57.42
43707;BME280;61348;53.392;-6.248;2023-04-25T11:38:42;101183.44;;;12.29;57.55
43707;BME280;61348;53.392;-6.248;2023-04-25T11:41:08;101183.78;;;12.39;57.46
43707;BME280;61348;53.392;-6.248;2023-04-25T11:43:35;101181.34;;;12.38;56.80
43707;BME280;61348;53.392;-6.248;2023-04-25T11:46:06;101173.38;;;12.36;57.46
43707;BME280;61348;53.392;-6.248;2023-04-25T11:48:43;101168.28;;;12.26;56.75
43707;BME280;61348;53.392;-6.248;2023-04-25T11:51:09;101170.59;;;12.12;56.87
43707;BME280;61348;53.392;-6.248;2023-04-25T11:53:41;101171.28;;;12.09;56.69
43707;BME280;61348;53.392;-6.248;2023-04-25T11:56:11;101164.56;;;12.10;56.70
43707;BME280;61348;53.392;-6.248;2023-04-25T11:58:54;101172.88;;;11.98;56.71
43707;BME280;61348;53.392;-6.248;2023-04-25T12:04:15;101163.59;;;11.82;57.50
43707;BME280;61348;53.392;-6.248;2023-04-25T12:06:44;101166.34;;;11.70;58.08
43707;BME280;61348;53.392;-6.248;2023-04-25T12:09:16;101164.75;;;11.81;58.48
43707;BME280;61348;53.392;-6.248;2023-04-25T12:11:48;101167.09;;;11.91;58.34
43707;BME280;61348;53.392;-6.248;2023-04-25T12:14:28;101166.41;;;12.06;58.35
43707;BME280;61348;53.392;-6.248;2023-04-25T12:16:57;101165.41;;;12.23;57.98
43707;BME280;61348;53.392;-6.248;2023-04-25T12:19:24;101168.28;;;12.38;57.66
43707;BME280;61348;53.392;-6.248;2023-04-25T12:21:52;101168.63;;;12.49;58.06
43707;BME280;61348;53.392;-6.248;2023-04-25T12:24:26;101172.91;;;12.46;57.79
43707;BME280;61348;53.392;-6.248;2023-04-25T12:27:05;101176.97;;;12.49;57.95
43707;BME280;61348;53.392;-6.248;2023-04-25T12:29:35;101175.13;;;12.65;57.62
43707;BME280;61348;53.392;-6.248;2023-04-25T12:32:16;101185.50;;;12.80;57.69
43707;BME280;61348;53.392;-6.248;2023-04-25T12:34:43;101172.63;;;12.88;57.49
43707;BME280;61348;53.392;-6.248;2023-04-25T12:37:10;101174.47;;;12.96;57.66
43707;BME280;61348;53.392;-6.248;2023-04-25T12:39:37;101178.72;;;13.05;57.40
43707;BME280;61348;53.392;-6.248;2023-04-25T12:42:03;101177.00;;;13.01;56.82
43707;BME280;61348;53.392;-6.248;2023-04-25T12:44:34;101162.47;;;12.92;56.85
43707;BME280;61348;53.392;-6.248;2023-04-25T12:47:01;101166.38;;;12.91;57.03
43707;BME280;61348;53.392;-6.248;2023-04-25T12:49:29;101167.28;;;12.95;56.64
43707;BME280;61348;53.392;-6.248;2023-04-25T12:51:56;101170.75;;;13.04;56.39
43707;BME280;61348;53.392;-6.248;2023-04-25T12:54:23;101162.41;;;13.16;56.22
43707;BME280;61348;53.392;-6.248;2023-04-25T12:56:50;101165.09;;;13.12;56.40
43707;BME280;61348;53.392;-6.248;2023-04-25T12:59:17;101161.75;;;13.07;56.59
43707;BME280;61348;53.392;-6.248;2023-04-25T13:01:44;101170.06;;;12.95;56.63